Flood From: 24-02-2018 06:00 Until: 25-02-2018 06:00 warning for: Flood Level: Yellow info button

Although rather usual in this region, locally or potentially dangerous phenomena are expected. (such as local winds, summer thunderstorms, rising streams or high waves) Be aware and pay attention to the latest weather updates, especially if you carry out activities exposed to weather or close to a stream or shoreline. 


Meteo18 Weather Cam more information Meteo18 Weather Cam


Thunder radar more information blitzortung!


Rain radar more information rain snow radar


Visit our other weather sites:

Template documentation
and downloads

And another site



Weather Underground History page Text

Daily Summary for October 30, 2017 Units:  Metric    English   Both
« Previous Day
Next Day »
Daily Weekly Monthly Yearly Custom
  High: Low: Average:
Temperature: -17.8 °C -15.9 °C -13.6 °C
Dew Point: -17.8 °C -16.3 °C -15.3 °C
Humidity: Humidity % 66 % 81 %
Wind Speed: 0 km/h 0 km/h 13 km/h
Wind Gust: 0 km/h - -
Wind:- - East
Pressure: 0 hPa 34682.8 hPa -
Precipitation: 0 mm    
Historical Graphs
 
 
Tabular Data for October 30, 2017
Time Temperature Dew Point Pressure Wind Wind Speed Wind Gust Humidity Rainfall Rate (Hourly)
-17.8 °C -17.8 °C 0 hPa Calm     Humidity % 0 mm
00:02 -13.4 °C -14.4 °C 34682.8 hPa NNE 20.8 km/h 28.5 km/h 88 % 0 mm
00:12 -13.6 °C -14.5 °C 34682.8 hPa NNW 5.1 km/h 28.5 km/h 89 % 0 mm
00:17 -13.7 °C -14.6 °C 34682.8 hPa NW 10.3 km/h 23.3 km/h 89 % 0 mm
00:22 -13.7 °C -14.7 °C 34693 hPa ENE 2.6 km/h 23.3 km/h 89 % 0 mm
00:32 -13.8 °C -14.8 °C 34693 hPa North 12.9 km/h 28.5 km/h 89 % 0 mm
00:42 -13.9 °C -14.8 °C 34693 hPa North 7.7 km/h 23.3 km/h 90 % 0 mm
00:47 -13.9 °C -14.9 °C 34693 hPa NNW 12.9 km/h 23.3 km/h 89 % 0 mm
00:52 -14 °C -14.8 °C 34693 hPa NNE 7.7 km/h 28.5 km/h 90 % 0 mm
01:02 -14.1 °C -14.9 °C 34693 hPa ENE 10.3 km/h 31.1 km/h 90 % 0 mm
01:12 -14.1 °C -14.9 °C 34693 hPa NW 7.7 km/h 31.1 km/h 90 % 0 mm
01:17 -14.1 °C -14.9 °C 34693 hPa Calm   20.8 km/h 90 % 0 mm
01:22 -14.2 °C -15 °C 34693 hPa NNE 7.7 km/h 25.9 km/h 90 % 0 mm
01:27 -14.2 °C -15 °C 34703.1 hPa NNE 2.6 km/h 25.9 km/h 90 % 0 mm
01:32 -14.2 °C -14.9 °C 34703.1 hPa NE 2.6 km/h 25.9 km/h 91 % 0 mm
01:37 -14.2 °C -15 °C 34703.1 hPa NE 10.3 km/h 20.8 km/h 91 % 0 mm
01:42 -14.3 °C -15.1 °C 34703.1 hPa NNE 10.3 km/h 20.8 km/h 91 % 0 mm
01:52 -14.3 °C -15.1 °C 34703.1 hPa NE 12.9 km/h 18.2 km/h 91 % 0 mm
01:57 -14.4 °C -15.2 °C 34703.1 hPa Calm   18.2 km/h 91 % 0 mm
02:02 -14.4 °C -15.2 °C 34703.1 hPa NE 10.3 km/h 18.2 km/h 91 % 0 mm
02:12 -14.4 °C -15.1 °C 34703.1 hPa WNW 5.1 km/h 23.3 km/h 92 % 0 mm
02:17 -14.4 °C -15.1 °C 34703.1 hPa North 18.2 km/h 23.3 km/h 92 % 0 mm
02:22 -14.4 °C -15.1 °C 34703.1 hPa NE 7.7 km/h 25.9 km/h 92 % 0 mm
02:27 -14.4 °C -15.2 °C 34703.1 hPa North 10.3 km/h 25.9 km/h 91 % 0 mm
02:32 -14.5 °C -15.2 °C 34703.1 hPa North 7.7 km/h 23.3 km/h 92 % 0 mm
02:47 -14.6 °C -15.2 °C 34703.1 hPa Calm   25.9 km/h 92 % 0 mm
02:57 -14.6 °C -15.3 °C 34703.1 hPa NNE 10.3 km/h 25.9 km/h 92 % 0 mm
03:02 -14.7 °C -15.3 °C 34703.1 hPa NE 5.1 km/h 23.3 km/h 92 % 0 mm
03:12 -14.7 °C -15.4 °C 34703.1 hPa NE 12.9 km/h 20.8 km/h 92 % 0 mm
03:17 -14.9 °C -15.6 °C 34703.1 hPa North 2.6 km/h 20.8 km/h 92 % 0 mm
03:22 -14.9 °C -15.6 °C 34703.1 hPa North 2.6 km/h 20.8 km/h 92 % 0 mm
03:27 -14.9 °C -15.6 °C 34703.1 hPa North 2.6 km/h 20.8 km/h 92 % 0 mm
07:57 -15.9 °C -16.3 °C 34774.2 hPa Calm   -2586.8 km/h 95 % 0 mm
08:02 -15.8 °C -16.2 °C 34784.4 hPa North 2.6 km/h -2586.8 km/h 95 % 0 mm
08:07 -15.8 °C -16.1 °C 34784.4 hPa Calm   7.7 km/h 96 % 0 mm
08:12 -15.8 °C -16.1 °C 34784.4 hPa Calm   7.7 km/h 96 % 0 mm
08:22 -15.6 °C -15.9 °C 34797.9 hPa North 2.6 km/h 12.9 km/h 96 % 0 mm
08:27 -15.6 °C -15.9 °C 34784.4 hPa NNE 5.1 km/h 12.9 km/h 96 % 0 mm
08:32 -15.5 °C -15.9 °C 34797.9 hPa NNE 12.9 km/h 12.9 km/h 95 % 0 mm
08:37 -15.4 °C -15.8 °C 34797.9 hPa Calm   18.2 km/h 95 % 0 mm
08:42 -15.3 °C -15.7 °C 34797.9 hPa NW 2.6 km/h 18.2 km/h 95 % 0 mm
08:52 -15.1 °C -15.5 °C 34797.9 hPa NNW 5.1 km/h 18.2 km/h 95 % 0 mm
08:57 -15.1 °C -15.4 °C 34797.9 hPa NE 7.7 km/h 15.6 km/h 95 % 0 mm
09:02 -14.9 °C -15.3 °C 34797.9 hPa NNW 7.7 km/h 15.6 km/h 95 % 0 mm
09:12 -14.7 °C -15.2 °C 34797.9 hPa NNE 2.6 km/h 23.3 km/h 93 % 0 mm
09:22 -14.5 °C -15.2 °C 34797.9 hPa NNE 10.3 km/h 25.9 km/h 92 % 0 mm
09:32 -14.3 °C -15.2 °C 34797.9 hPa NE 12.9 km/h 31.1 km/h 90 % 0 mm
09:37 -14.3 °C -15.1 °C 34797.9 hPa NE 20.8 km/h 28.5 km/h 90 % 0 mm
09:42 -14.2 °C -15.1 °C 34784.4 hPa NE 15.6 km/h 28.5 km/h 90 % 0 mm
09:52 -14.1 °C -15.1 °C 34784.4 hPa North 10.3 km/h 28.5 km/h 89 % 0 mm
09:57 -14.1 °C -15 °C 34797.9 hPa NE 15.6 km/h 33.6 km/h 89 % 0 mm
10:02 -14 °C -14.9 °C 34797.9 hPa North 20.8 km/h 33.6 km/h 89 % 0 mm
10:07 -14 °C -15 °C 34797.9 hPa NE 18.2 km/h 28.5 km/h 88 % 0 mm
10:12 -13.9 °C -14.9 °C 34797.9 hPa NNE 18.2 km/h 28.5 km/h 88 % 0 mm
10:17 -13.9 °C -14.9 °C 34784.4 hPa NE 28.5 km/h 33.6 km/h 88 % 0 mm
10:22 -13.8 °C -14.9 °C 34784.4 hPa NNE 12.9 km/h 33.6 km/h 88 % 0 mm
10:27 -13.8 °C -14.9 °C 34784.4 hPa NE 10.3 km/h 36.2 km/h 87 % 0 mm
10:32 -13.7 °C -14.8 °C 34784.4 hPa NE 18.2 km/h 36.2 km/h 87 % 0 mm
10:42 -13.5 °C -14.6 °C 34784.4 hPa NNE 33.6 km/h 33.6 km/h 87 % 0 mm
10:47 -13.5 °C -14.7 °C 34797.9 hPa NNE 7.7 km/h 33.6 km/h 86 % 0 mm
10:52 -13.4 °C -14.8 °C 34797.9 hPa NNE 31.1 km/h 33.6 km/h 85 % 0 mm
11:02 -13.4 °C -14.7 °C 34797.9 hPa NE 23.3 km/h 41.4 km/h 85 % 0 mm
11:07 -13.2 °C -14.6 °C 34797.9 hPa NE 33.6 km/h 41.4 km/h 85 % 0 mm
11:12 -13.3 °C -14.6 °C 34797.9 hPa North 23.3 km/h 41.4 km/h 85 % 0 mm
11:17 -13.2 °C -14.6 °C 34797.9 hPa NE 10.3 km/h 46.7 km/h 84 % 0 mm
11:27 -13.1 °C -14.4 °C 34797.9 hPa NNE 31.1 km/h 44.1 km/h 85 % 0 mm
11:32 -13 °C -14.4 °C 34797.9 hPa NE 15.6 km/h 44.1 km/h 84 % 0 mm
11:37 -12.9 °C -14.3 °C 34797.9 hPa ENE 12.9 km/h 44.1 km/h 84 % 0 mm
11:42 -12.8 °C -14.4 °C 34797.9 hPa North 31.1 km/h 44.1 km/h 82 % 0 mm
11:47 -12.8 °C -14.4 °C 34797.9 hPa NNE 15.6 km/h 41.4 km/h 82 % 0 mm
11:52 -12.7 °C -14.2 °C 34797.9 hPa NNE 20.8 km/h 41.4 km/h 83 % 0 mm
11:57 -12.7 °C -14.5 °C 34797.9 hPa NNE 18.2 km/h 36.2 km/h 80 % 0 mm
12:02 -12.7 °C -14.6 °C 34797.9 hPa NNE 23.3 km/h 36.2 km/h 79 % 0 mm
12:12 -12.5 °C -14.6 °C 34784.4 hPa NE 10.3 km/h 41.4 km/h 77 % 0 mm
12:17 -12.4 °C -14.7 °C 34797.9 hPa NNE 18.2 km/h 41.4 km/h 76 % 0 mm
12:22 -12.2 °C -14.3 °C 34784.4 hPa NE 7.7 km/h 41.4 km/h 77 % 0 mm
12:32 -12.1 °C -14.4 °C 34784.4 hPa NE 25.9 km/h 44.1 km/h 75 % 0 mm
12:37 -12.1 °C -14.6 °C 34797.9 hPa NE 36.2 km/h 44.1 km/h 73 % 0 mm
12:42 -12.1 °C -14.8 °C 34797.9 hPa ENE 15.6 km/h 41.4 km/h 72 % 0 mm
12:52 -12.1 °C -15 °C 34784.4 hPa NW 15.6 km/h 41.4 km/h 70 % 0 mm
12:57 -12.1 °C -15.1 °C 34784.4 hPa ENE 20.8 km/h 49.2 km/h 69 % 0 mm
13:02 -12.2 °C -15.1 °C 34784.4 hPa NNE 23.3 km/h 49.2 km/h 70 % 0 mm
13:12 -12.3 °C -15.2 °C 34784.4 hPa NE 31.1 km/h 57 km/h 70 % 0 mm
13:22 -12.3 °C -15.3 °C 34784.4 hPa ENE 25.9 km/h 54.4 km/h 69 % 0 mm
13:32 -12.3 °C -15.1 °C 34784.4 hPa NE 23.3 km/h 41.4 km/h 71 % 0 mm
13:37 -12.1 °C -15 °C 34784.4 hPa NE 18.2 km/h 41.4 km/h 70 % 0 mm
13:42 -12.2 °C -15.2 °C 34784.4 hPa North 25.9 km/h 41.4 km/h 69 % 0 mm
13:52 -12.3 °C -14.9 °C 34797.9 hPa NE 20.8 km/h 44.1 km/h 72 % 0 mm
13:57 -12.1 °C -14.6 °C 34784.4 hPa NE 12.9 km/h 44.1 km/h 73 % 0 mm
14:02 -12.1 °C -15.2 °C 34784.4 hPa NNE 44.1 km/h 44.1 km/h 68 % 0 mm
14:12 -12.3 °C -15.2 °C 34784.4 hPa ENE 23.3 km/h 46.7 km/h 70 % 0 mm
14:17 -12.2 °C -15.3 °C 34784.4 hPa ENE 28.5 km/h 46.7 km/h 68 % 0 mm
14:22 -12.1 °C -15.2 °C 34784.4 hPa ENE 12.9 km/h 41.4 km/h 68 % 0 mm
14:32 -11.8 °C -15 °C 34784.4 hPa NE 12.9 km/h 41.4 km/h 68 % 0 mm
14:37 -11.8 °C -14.9 °C 34784.4 hPa NE 28.5 km/h 41.4 km/h 68 % 0 mm
14:42 -11.9 °C -15.1 °C 34784.4 hPa NE 18.2 km/h 41.4 km/h 68 % 0 mm
14:52 -12 °C -15.3 °C 34784.4 hPa NNW 20.8 km/h 49.2 km/h 67 % 0 mm
14:57 -11.9 °C -15.3 °C 34784.4 hPa ENE 15.6 km/h 49.2 km/h 66 % 0 mm
15:02 -12 °C -15.3 °C 34784.4 hPa NE 23.3 km/h 49.2 km/h 67 % 0 mm
15:12 -12 °C -15.2 °C 34784.4 hPa NE 15.6 km/h 38.8 km/h 68 % 0 mm
15:17 -11.9 °C -14.9 °C 34784.4 hPa NNE 20.8 km/h 38.8 km/h 69 % 0 mm
15:22 -12 °C -14.9 °C 34784.4 hPa NE 18.2 km/h 44.1 km/h 70 % 0 mm
15:27 -12.2 °C -15.1 °C 34797.9 hPa NNE 10.3 km/h 44.1 km/h 70 % 0 mm
15:32 -12.3 °C -14.9 °C 34797.9 hPa North 15.6 km/h 38.8 km/h 72 % 0 mm
15:42 -12.2 °C -14.9 °C 34797.9 hPa North 18.2 km/h 38.8 km/h 71 % 0 mm
15:52 -12.1 °C -15 °C 34797.9 hPa NNW 12.9 km/h 44.1 km/h 70 % 0 mm
15:57 -12.1 °C -14.9 °C 34797.9 hPa NE 7.7 km/h 44.1 km/h 71 % 0 mm
16:02 -12.1 °C -15.1 °C 34797.9 hPa NNE 12.9 km/h 44.1 km/h 69 % 0 mm
16:12 -12.2 °C -15.2 °C 34797.9 hPa NE 25.9 km/h 41.4 km/h 69 % 0 mm
16:17 -12.2 °C -15.1 °C 34797.9 hPa NNE 28.5 km/h 41.4 km/h 70 % 0 mm
16:22 -12.2 °C -15 °C 34797.9 hPa NE 25.9 km/h 41.4 km/h 71 % 0 mm
16:32 -12.2 °C -15.1 °C 34797.9 hPa NNE 15.6 km/h 38.8 km/h 70 % 0 mm
16:37 -12.2 °C -15.1 °C 34797.9 hPa ENE 20.8 km/h 36.2 km/h 70 % 0 mm
16:42 -12.2 °C -15.1 °C 34797.9 hPa NE 20.8 km/h 36.2 km/h 70 % 0 mm
16:57 -12.3 °C -15.3 °C 34797.9 hPa NE 15.6 km/h 31.1 km/h 69 % 0 mm
17:02 -12.3 °C -15.3 °C 34797.9 hPa NE 12.9 km/h 31.1 km/h 69 % 0 mm
17:12 -12.3 °C -15.2 °C 34797.9 hPa NE 10.3 km/h 28.5 km/h 70 % 0 mm
17:17 -12.4 °C -15.3 °C 34797.9 hPa NE 33.6 km/h 33.6 km/h 70 % 0 mm
17:22 -12.4 °C -15.3 °C 34797.9 hPa NE 18.2 km/h 33.6 km/h 70 % 0 mm
17:32 -12.7 °C -15.3 °C 34808.1 hPa NNE 2.6 km/h 36.2 km/h 72 % 0 mm
17:37 -12.8 °C -15.4 °C 34808.1 hPa NE 7.7 km/h 36.2 km/h 73 % 0 mm
17:42 -12.9 °C -15.3 °C 34808.1 hPa ENE 12.9 km/h 36.2 km/h 74 % 0 mm
17:47 -12.9 °C -15.4 °C 34808.1 hPa NE 23.3 km/h 31.1 km/h 73 % 0 mm
17:52 -12.9 °C -15.4 °C 34808.1 hPa NNW 5.1 km/h 31.1 km/h 73 % 0 mm
17:57 -12.8 °C -15.4 °C 34808.1 hPa NNE 12.9 km/h 33.6 km/h 73 % 0 mm
18:02 -12.9 °C -15.3 °C 34818.2 hPa NE 18.2 km/h 33.6 km/h 74 % 0 mm
18:12 -12.9 °C -15.2 °C 34818.2 hPa NE 12.9 km/h 31.1 km/h 75 % 0 mm
18:17 -12.9 °C -15.3 °C 34818.2 hPa NE 7.7 km/h 20.8 km/h 75 % 0 mm
18:22 -13 °C -15.3 °C 34831.8 hPa NE 7.7 km/h 20.8 km/h 75 % 0 mm
18:32 -13.1 °C -15.3 °C 34831.8 hPa NNE 7.7 km/h 31.1 km/h 76 % 0 mm
18:42 -13.2 °C -15.4 °C 34831.8 hPa NE 20.8 km/h 28.5 km/h 76 % 0 mm
18:52 -13.2 °C -15.3 °C 34831.8 hPa North 15.6 km/h 28.5 km/h 77 % 0 mm
18:57 -13.3 °C -15.4 °C 34831.8 hPa NNE 15.6 km/h 28.5 km/h 77 % 0 mm
19:02 -13.4 °C -15.4 °C 34831.8 hPa ENE 10.3 km/h 28.5 km/h 78 % 0 mm
19:12 -13.6 °C -15.5 °C 34831.8 hPa NNE 5.1 km/h 25.9 km/h 79 % 0 mm
19:17 -13.7 °C -15.6 °C 34818.2 hPa NE 15.6 km/h 18.2 km/h 79 % 0 mm
19:22 -13.6 °C -15.5 °C 34831.8 hPa NE 18.2 km/h 20.8 km/h 79 % 0 mm
19:32 -13.7 °C -15.4 °C 34831.8 hPa NE 12.9 km/h 23.3 km/h 80 % 0 mm
19:37 -13.7 °C -15.4 °C 34831.8 hPa NE 10.3 km/h 23.3 km/h 80 % 0 mm
19:42 -13.7 °C -15.4 °C 34831.8 hPa ENE 23.3 km/h 23.3 km/h 80 % 0 mm
19:47 -13.7 °C -15.6 °C 34831.8 hPa NE 10.3 km/h 23.3 km/h 79 % 0 mm
19:52 -13.7 °C -15.6 °C 34831.8 hPa NE 2.6 km/h 28.5 km/h 79 % 0 mm
19:57 -13.7 °C -15.6 °C 34831.8 hPa NNE 12.9 km/h 28.5 km/h 79 % 0 mm
20:12 -13.8 °C -15.6 °C 34831.8 hPa NNE 5.1 km/h 25.9 km/h 80 % 0 mm
20:17 -13.8 °C -15.6 °C 34831.8 hPa NNE 7.7 km/h 25.9 km/h 80 % 0 mm
20:22 -13.8 °C -15.6 °C 34831.8 hPa North 10.3 km/h 25.9 km/h 80 % 0 mm
20:27 -13.9 °C -15.7 °C 34831.8 hPa North 10.3 km/h 23.3 km/h 80 % 0 mm
20:32 -13.9 °C -15.7 °C 34831.8 hPa NE 12.9 km/h 23.3 km/h 80 % 0 mm
20:37 -13.9 °C -15.7 °C 34831.8 hPa NE 10.3 km/h 23.3 km/h 80 % 0 mm
20:47 -14 °C -15.7 °C 34831.8 hPa NE 15.6 km/h 25.9 km/h 81 % 0 mm
20:57 -14.1 °C -15.7 °C 34831.8 hPa NNE 2.6 km/h 20.8 km/h 81 % 0 mm
21:02 -14.1 °C -15.7 °C 34831.8 hPa ENE 18.2 km/h 20.8 km/h 82 % 0 mm
21:07 -14.1 °C -15.7 °C 34831.8 hPa Calm   20.8 km/h 82 % 0 mm
21:12 -14.2 °C -15.8 °C 34831.8 hPa NNW 2.6 km/h 20.8 km/h 82 % 0 mm
21:22 -14.3 °C -15.8 °C 34831.8 hPa NNE 5.1 km/h 23.3 km/h 83 % 0 mm
21:27 -14.3 °C -15.8 °C 34831.8 hPa NNW 7.7 km/h 23.3 km/h 83 % 0 mm
21:32 -14.2 °C -15.7 °C 34831.8 hPa NNW 5.1 km/h 15.6 km/h 83 % 0 mm
21:37 -14.2 °C -15.7 °C 34831.8 hPa NE 10.3 km/h 23.3 km/h 83 % 0 mm
21:42 -14.2 °C -15.8 °C 34831.8 hPa North 10.3 km/h 23.3 km/h 82 % 0 mm
21:47 -14.2 °C -15.8 °C 34841.9 hPa NE 7.7 km/h 28.5 km/h 82 % 0 mm
21:52 -14.2 °C -15.7 °C 34841.9 hPa NNE 5.1 km/h 28.5 km/h 83 % 0 mm
21:57 -14.2 °C -15.7 °C 34841.9 hPa NNE 20.8 km/h 28.5 km/h 83 % 0 mm
22:02 -14.2 °C -15.7 °C 34841.9 hPa NNE 7.7 km/h 28.5 km/h 83 % 0 mm
22:12 -14.3 °C -15.8 °C 34841.9 hPa North 12.9 km/h 28.5 km/h 83 % 0 mm
22:17 -14.3 °C -15.7 °C 34841.9 hPa North 12.9 km/h 28.5 km/h 84 % 0 mm
22:22 -14.3 °C -15.7 °C 34841.9 hPa NNE 7.7 km/h 28.5 km/h 84 % 0 mm
22:32 -14.4 °C -15.8 °C 34841.9 hPa ENE 7.7 km/h 28.5 km/h 84 % 0 mm
22:37 -14.5 °C -15.9 °C 34841.9 hPa NNE 7.7 km/h 25.9 km/h 84 % 0 mm
22:42 -14.4 °C -15.8 °C 34841.9 hPa NNE 12.9 km/h 25.9 km/h 84 % 0 mm
22:52 -14.6 °C -15.9 °C 34841.9 hPa North 5.1 km/h 20.8 km/h 85 % 0 mm
23:02 -14.8 °C -16 °C 34841.9 hPa Calm   18.2 km/h 86 % 0 mm
23:07 -14.9 °C -16.1 °C 34841.9 hPa North 7.7 km/h 10.3 km/h 86 % 0 mm
23:17 -14.9 °C -16.1 °C 34841.9 hPa NNW 5.1 km/h 12.9 km/h 87 % 0 mm
23:22 -15.1 °C -16.2 °C 34841.9 hPa NNW 7.7 km/h 12.9 km/h 87 % 0 mm
23:27 -15.1 °C -16.1 °C 34841.9 hPa NNE 7.7 km/h 12.9 km/h 88 % 0 mm
23:32 -15.1 °C -16.1 °C 34841.9 hPa NNW 5.1 km/h 12.9 km/h 88 % 0 mm
23:37 -15.1 °C -16.1 °C 34841.9 hPa North 15.6 km/h 15.6 km/h 88 % 0 mm
23:42 -15.1 °C -16.1 °C 34831.8 hPa NE 5.1 km/h 15.6 km/h 88 % 0 mm
23:52 -15.2 °C -16.2 °C 34831.8 hPa NE 2.6 km/h 18.2 km/h 88 % 0 mm
23:57 -15.2 °C -16.2 °C 34831.8 hPa NNW 2.6 km/h 18.2 km/h 88 % 0 mm
Meteo18
Compliments of Weather Underground - 4 mb

Script developed by  Jim McMurry - jmcmurry@mwt.net Adapted for the template by  Wim van der Kuil - Leuven-Template.eu

You find our weather info also at:

European Weather Network

Weather Underground

Equipment we use:

Weather-station
Davis Vue

Weather-program
Meteobridge

Weather-server
Raspberry PI 2 B+

Provider
1 and 1

Davis Vue

Meteobridge

Raspberry PI 2 B+

1 and 1